createdAt,value
2018-02-07T00:00:41.623Z,37.15
2018-02-07T00:03:08.556Z,44.17
2018-02-07T00:05:35.440Z,41.00
2018-02-07T00:08:02.408Z,41.50
2018-02-07T00:10:29.278Z,43.65
2018-02-07T00:12:56.955Z,43.00
2018-02-07T00:15:23.823Z,42.58
2018-02-07T00:17:50.694Z,42.45
2018-02-07T00:20:17.639Z,39.58
2018-02-07T00:22:44.515Z,33.63
2018-02-07T00:25:12.232Z,38.88
2018-02-07T00:27:39.171Z,44.65
2018-02-07T00:30:06.045Z,36.50
2018-02-07T00:32:32.987Z,39.17
2018-02-07T00:34:59.866Z,39.80
2018-02-07T00:37:27.529Z,39.13
2018-02-07T00:39:55.231Z,37.22
2018-02-07T00:42:22.108Z,37.28
2018-02-07T00:44:49.034Z,38.53
2018-02-07T00:47:15.901Z,42.15
2018-02-07T00:49:42.827Z,37.90
2018-02-07T00:52:09.692Z,37.22
2018-02-07T00:54:36.621Z,33.78
2018-02-07T00:57:03.498Z,42.75
2018-02-07T00:59:30.424Z,40.30
2018-02-07T01:01:57.412Z,36.53
2018-02-07T01:04:24.277Z,35.13
2018-02-07T01:06:51.182Z,38.33
2018-02-07T01:09:18.795Z,39.72
2018-02-07T01:11:45.775Z,37.90
2018-02-07T01:14:12.720Z,40.03
2018-02-07T01:16:39.634Z,40.30
2018-02-07T01:19:06.508Z,45.30
2018-02-07T01:21:33.433Z,40.20
2018-02-07T01:24:00.294Z,39.22
2018-02-07T01:26:27.255Z,38.50
2018-02-07T01:28:54.120Z,43.65
2018-02-07T01:31:21.066Z,40.78
2018-02-07T01:33:48.743Z,41.22
2018-02-07T01:36:15.602Z,38.97
2018-02-07T01:38:42.586Z,42.40
2018-02-07T01:41:09.454Z,39.70
2018-02-07T01:43:36.386Z,43.42
2018-02-07T01:46:03.317Z,38.67
2018-02-07T01:48:30.238Z,39.15
2018-02-07T01:50:57.101Z,41.08
2018-02-07T01:53:24.075Z,38.20
2018-02-07T01:55:50.927Z,45.30
2018-02-07T01:58:18.655Z,41.88
2018-02-07T02:00:45.538Z,43.53
2018-02-07T02:03:13.153Z,46.35
2018-02-07T02:05:40.096Z,43.63
2018-02-07T02:08:06.967Z,43.20
2018-02-07T02:10:33.935Z,45.15
2018-02-07T02:13:01.598Z,40.70
2018-02-07T02:15:29.240Z,39.55
2018-02-07T02:17:56.177Z,41.58
2018-02-07T02:20:23.038Z,34.53
2018-02-07T02:22:49.977Z,48.38
2018-02-07T02:25:16.897Z,35.65
2018-02-07T02:27:43.759Z,37.63
2018-02-07T02:30:10.689Z,44.95
2018-02-07T02:32:37.559Z,44.13
2018-02-07T02:35:04.471Z,39.58
2018-02-07T02:37:31.406Z,39.63
2018-02-07T02:39:58.290Z,43.65
2018-02-07T02:42:25.213Z,43.60
2018-02-07T02:44:52.092Z,47.85
2018-02-07T02:47:18.956Z,42.65
2018-02-07T02:49:46.673Z,42.60
2018-02-07T02:52:13.544Z,42.30
2018-02-07T02:54:40.476Z,43.60
2018-02-07T02:57:07.402Z,41.92
2018-02-07T02:59:34.319Z,46.53
2018-02-07T03:02:01.188Z,42.80
2018-02-07T03:04:28.122Z,40.95
2018-02-07T03:06:55.078Z,43.10
2018-02-07T03:09:21.999Z,41.55
2018-02-07T03:11:48.949Z,40.97
2018-02-07T03:14:15.882Z,41.40
2018-02-07T03:16:42.737Z,47.88
2018-02-07T03:19:09.663Z,45.03
2018-02-07T03:21:37.284Z,42.25
2018-02-07T03:24:04.213Z,52.53
2018-02-07T03:26:31.163Z,49.78
2018-02-07T03:28:58.027Z,47.33
2018-02-07T03:31:24.895Z,52.25
2018-02-07T03:33:52.019Z,46.25
2018-02-07T03:36:18.896Z,43.42
2018-02-07T03:38:45.819Z,68.78
2018-02-07T03:41:12.765Z,48.13
2018-02-07T03:43:39.699Z,47.83
2018-02-07T03:46:06.704Z,51.10
2018-02-07T03:48:33.619Z,65.62
2018-02-07T03:51:00.527Z,52.00
2018-02-07T03:53:27.457Z,45.20
2018-02-07T03:55:54.325Z,46.50
2018-02-07T03:58:21.255Z,42.60
2018-02-07T04:00:48.176Z,50.92
2018-02-07T04:03:15.132Z,41.55
2018-02-07T04:05:42.155Z,49.10
2018-02-07T04:08:09.771Z,51.60
2018-02-07T04:10:36.715Z,42.72
2018-02-07T04:13:03.598Z,48.03
2018-02-07T04:15:30.582Z,49.03
2018-02-07T04:17:57.525Z,49.03
2018-02-07T04:20:24.390Z,54.60
2018-02-07T04:22:51.332Z,50.00
2018-02-07T04:25:18.192Z,50.63
2018-02-07T04:27:45.103Z,48.97
2018-02-07T04:30:11.987Z,50.85
2018-02-07T04:32:38.914Z,55.95
2018-02-07T04:35:05.838Z,56.80
2018-02-07T04:37:32.707Z,49.67
2018-02-07T04:39:59.634Z,48.87
2018-02-07T04:42:26.503Z,47.00
2018-02-07T04:44:53.416Z,48.72
2018-02-07T04:47:20.293Z,44.42
2018-02-07T04:49:47.238Z,48.90
2018-02-07T04:52:14.130Z,43.53
2018-02-07T04:54:41.058Z,53.63
2018-02-07T04:57:07.995Z,46.97
2018-02-07T04:59:34.915Z,47.62
2018-02-07T05:02:01.867Z,57.45
2018-02-07T05:04:28.748Z,50.17
2018-02-07T05:06:55.661Z,49.47
2018-02-07T05:09:22.571Z,49.63
2018-02-07T05:11:49.444Z,41.65
2018-02-07T05:14:16.459Z,44.50
2018-02-07T05:16:44.078Z,54.30
2018-02-07T05:19:11.015Z,63.60
2018-02-07T05:21:37.955Z,54.83
2018-02-07T05:24:06.954Z,89.43
2018-02-07T05:26:38.457Z,59.35
2018-02-07T05:29:21.255Z,62.00
2018-02-07T05:31:51.227Z,61.58
2018-02-07T05:34:20.461Z,63.63
2018-02-07T05:36:52.682Z,63.38
2018-02-07T05:39:22.643Z,58.97
2018-02-07T05:41:51.962Z,50.70
2018-02-07T05:44:27.580Z,60.08
2018-02-07T05:46:56.588Z,53.17
2018-02-07T05:49:26.182Z,54.58
2018-02-07T05:51:55.079Z,58.90
2018-02-07T05:54:23.923Z,50.92
2018-02-07T05:56:50.796Z,59.95
2018-02-07T05:59:17.729Z,57.88
2018-02-07T06:01:55.071Z,57.10
2018-02-07T06:04:34.234Z,59.92
2018-02-07T06:07:04.779Z,54.83
2018-02-07T06:09:42.704Z,69.72
2018-02-07T06:12:22.910Z,55.17
2018-02-07T06:14:52.376Z,56.92
2018-02-07T06:17:19.303Z,62.53
2018-02-07T06:19:46.155Z,59.28
2018-02-07T06:22:13.032Z,56.42
2018-02-07T06:24:40.047Z,65.60
2018-02-07T06:27:06.918Z,53.47
2018-02-07T06:29:33.854Z,67.93
2018-02-07T06:32:00.719Z,59.60
2018-02-07T06:34:27.689Z,63.70
2018-02-07T06:36:55.360Z,64.55
2018-02-07T06:39:22.235Z,60.67
2018-02-07T06:41:49.147Z,63.97
2018-02-07T06:44:16.891Z,63.75
2018-02-07T06:46:43.780Z,65.22
2018-02-07T06:49:10.719Z,72.05
2018-02-07T06:51:38.366Z,57.72
2018-02-07T06:54:05.320Z,63.90
2018-02-07T06:56:32.327Z,61.20
2018-02-07T06:59:10.849Z,67.87
2018-02-07T07:01:39.799Z,59.28
2018-02-07T07:04:06.756Z,65.32
2018-02-07T07:06:33.681Z,72.32
2018-02-07T07:09:00.701Z,63.10
2018-02-07T07:11:27.596Z,68.60
2018-02-07T07:13:54.618Z,66.85
2018-02-07T07:16:21.636Z,69.20
2018-02-07T07:18:48.569Z,66.20
2018-02-07T07:21:15.441Z,72.78
2018-02-07T07:23:43.145Z,67.65
2018-02-07T07:26:10.021Z,75.25
2018-02-07T07:28:36.956Z,68.03
2018-02-07T07:31:03.827Z,71.95
2018-02-07T07:33:30.766Z,74.30
2018-02-07T07:35:57.718Z,67.70
2018-02-07T07:38:24.587Z,69.97
2018-02-07T07:40:51.597Z,70.78
2018-02-07T07:43:18.502Z,65.53
2018-02-07T07:45:45.459Z,64.30
2018-02-07T07:48:12.331Z,53.47
2018-02-07T07:50:39.206Z,51.33
2018-02-07T07:53:06.887Z,49.90
2018-02-07T07:55:33.775Z,56.67
2018-02-07T07:58:00.732Z,51.50
2018-02-07T08:00:28.378Z,47.22
2018-02-07T08:02:55.346Z,47.67
2018-02-07T08:05:22.237Z,49.27
2018-02-07T08:07:49.121Z,48.10
2018-02-07T08:10:16.070Z,61.70
2018-02-07T08:12:43.027Z,49.60
2018-02-07T08:15:10.115Z,48.87
2018-02-07T08:17:36.994Z,43.90
2018-02-07T08:20:04.152Z,43.03
2018-02-07T08:22:33.036Z,47.07
2018-02-07T08:25:00.026Z,42.70
2018-02-07T08:27:27.842Z,48.60
2018-02-07T08:29:55.308Z,39.20
2018-02-07T08:32:22.979Z,50.57
2018-02-07T08:34:50.400Z,52.83
2018-02-07T08:37:17.291Z,39.83
2018-02-07T08:39:45.696Z,43.00
2018-02-07T08:42:14.171Z,45.63
2018-02-07T08:44:42.707Z,44.37
2018-02-07T08:47:11.283Z,41.53
2018-02-07T08:49:38.627Z,44.77
2018-02-07T08:52:05.930Z,43.60
2018-02-07T08:54:32.899Z,44.50
2018-02-07T08:56:59.779Z,43.00
2018-02-07T08:59:26.716Z,44.50
2018-02-07T09:01:53.626Z,50.60
2018-02-07T09:04:20.643Z,45.83
2018-02-07T09:06:47.524Z,45.97
2018-02-07T09:09:14.404Z,44.03
2018-02-07T09:11:41.405Z,45.70
2018-02-07T09:14:08.310Z,46.30
2018-02-07T09:16:35.352Z,48.37
2018-02-07T09:19:02.229Z,47.00
2018-02-07T09:21:29.178Z,51.10
2018-02-07T09:23:56.056Z,51.20
2018-02-07T09:26:23.809Z,44.77
2018-02-07T09:28:50.715Z,48.27
2018-02-07T09:31:17.660Z,46.40
2018-02-07T09:33:44.536Z,52.37
2018-02-07T09:36:11.495Z,52.63
2018-02-07T09:38:38.440Z,49.97
2018-02-07T09:41:05.333Z,47.47
2018-02-07T09:43:32.312Z,50.20
2018-02-07T09:45:59.203Z,46.13
2018-02-07T09:48:26.126Z,53.00
2018-02-07T09:50:53.075Z,58.80
2018-02-07T09:53:20.013Z,48.60
2018-02-07T09:55:46.935Z,49.10
2018-02-07T09:58:13.915Z,47.07
2018-02-07T10:00:40.820Z,46.73
2018-02-07T10:03:07.866Z,48.17
2018-02-07T10:05:34.748Z,53.53
2018-02-07T10:08:01.648Z,50.45
2018-02-07T10:10:28.608Z,52.15
2018-02-07T10:12:55.495Z,50.63
2018-02-07T10:15:22.429Z,48.22
2018-02-07T10:17:50.055Z,50.72
2018-02-07T10:20:17.031Z,54.15
2018-02-07T10:22:43.908Z,48.28
2018-02-07T10:25:10.852Z,54.80
2018-02-07T10:27:37.863Z,48.10
2018-02-07T10:30:04.784Z,50.78
2018-02-07T10:32:31.730Z,51.55
2018-02-07T10:34:58.716Z,52.03
2018-02-07T10:37:25.735Z,47.95
2018-02-07T10:39:52.607Z,48.40
2018-02-07T10:42:19.581Z,53.22
2018-02-07T10:44:46.555Z,47.67
2018-02-07T10:47:13.450Z,48.20
2018-02-07T10:49:40.395Z,50.05
2018-02-07T10:52:07.311Z,47.45
2018-02-07T10:54:34.267Z,44.93
2018-02-07T10:57:01.146Z,50.55
2018-02-07T10:59:28.113Z,46.72
2018-02-07T11:01:55.029Z,44.20
2018-02-07T11:04:22.790Z,49.50
2018-02-07T11:06:49.676Z,45.28
2018-02-07T11:09:16.643Z,47.88
2018-02-07T11:11:43.527Z,49.65
2018-02-07T11:14:10.406Z,51.63
2018-02-07T11:16:37.357Z,48.92
2018-02-07T11:19:04.298Z,48.55
2018-02-07T11:21:31.244Z,48.53
2018-02-07T11:23:58.118Z,47.72
2018-02-07T11:26:25.115Z,44.50
2018-02-07T11:28:52.762Z,46.63
2018-02-07T11:31:19.711Z,53.85
2018-02-07T11:33:46.656Z,43.47
2018-02-07T11:36:14.320Z,59.67
2018-02-07T11:38:41.274Z,41.78
2018-02-07T11:41:08.964Z,49.77
2018-02-07T11:43:35.931Z,46.15
2018-02-07T11:46:02.823Z,51.53
2018-02-07T11:48:29.763Z,40.50
2018-02-07T11:50:56.746Z,52.33
2018-02-07T11:53:23.635Z,50.45
2018-02-07T11:55:50.583Z,47.30
2018-02-07T11:58:17.545Z,42.95
2018-02-07T12:00:44.448Z,45.80
2018-02-07T12:03:11.312Z,50.42
2018-02-07T12:05:38.318Z,44.60
2018-02-07T12:08:05.203Z,53.38
2018-02-07T12:10:32.162Z,51.13
2018-02-07T12:12:59.044Z,50.20
2018-02-07T12:15:26.017Z,47.53
2018-02-07T12:17:52.960Z,46.40
2018-02-07T12:20:19.931Z,49.77
2018-02-07T12:22:46.836Z,51.25
2018-02-07T12:25:13.862Z,50.12
2018-02-07T12:27:40.807Z,51.20
2018-02-07T12:30:07.768Z,48.20
2018-02-07T12:32:35.380Z,47.90
2018-02-07T12:35:02.254Z,47.58
2018-02-07T12:37:29.279Z,52.85
2018-02-07T12:39:56.182Z,48.97
2018-02-07T12:42:23.138Z,51.45
2018-02-07T12:44:50.023Z,48.70
2018-02-07T12:47:16.978Z,48.58
2018-02-07T12:49:43.881Z,48.80
2018-02-07T12:52:10.860Z,48.28
2018-02-07T12:54:37.759Z,53.75
2018-02-07T12:57:04.612Z,51.87
2018-02-07T12:59:31.565Z,54.75
2018-02-07T13:01:58.443Z,48.70
2018-02-07T13:04:25.523Z,55.63
2018-02-07T13:06:53.228Z,53.20
2018-02-07T13:09:23.310Z,57.92
2018-02-07T13:11:51.056Z,51.20
2018-02-07T13:14:18.010Z,58.35
2018-02-07T13:16:45.309Z,59.90
2018-02-07T13:19:12.254Z,48.87
2018-02-07T13:21:40.213Z,50.15
2018-02-07T13:24:17.040Z,44.28
2018-02-07T13:26:46.230Z,56.70
2018-02-07T13:29:24.863Z,52.17
2018-02-07T13:31:56.302Z,45.87
2018-02-07T13:34:30.777Z,50.90
2018-02-07T13:37:01.472Z,52.27
2018-02-07T13:39:28.673Z,53.35
2018-02-07T13:41:56.809Z,44.65
2018-02-07T13:44:23.755Z,45.90
2018-02-07T13:46:55.918Z,50.05
2018-02-07T13:49:36.112Z,51.90
2018-02-07T13:52:09.878Z,55.00
2018-02-07T13:54:37.477Z,50.95
2018-02-07T13:57:12.516Z,50.65
2018-02-07T13:59:43.595Z,53.00
2018-02-07T14:02:10.613Z,50.03
2018-02-07T14:04:38.845Z,53.70
2018-02-07T14:07:15.294Z,51.88
2018-02-07T14:09:43.594Z,56.03
2018-02-07T14:12:10.535Z,54.00
2018-02-07T14:14:38.037Z,55.38
2018-02-07T14:17:12.245Z,52.13
2018-02-07T14:19:45.285Z,54.50
2018-02-07T14:22:12.288Z,55.25
2018-02-07T14:24:39.176Z,53.85
2018-02-07T14:27:08.720Z,52.08
2018-02-07T14:29:41.124Z,52.38
2018-02-07T14:32:08.004Z,49.08
2018-02-07T14:34:36.579Z,56.53
2018-02-07T14:37:05.934Z,52.97
2018-02-07T14:39:38.961Z,53.65
2018-02-07T14:42:06.593Z,53.25
2018-02-07T14:44:33.620Z,53.40
2018-02-07T14:47:05.464Z,56.60
2018-02-07T14:49:33.758Z,54.42
2018-02-07T14:52:05.401Z,57.22
2018-02-07T14:54:32.960Z,53.83
2018-02-07T14:57:01.419Z,57.53
2018-02-07T14:59:28.316Z,57.75
2018-02-07T15:01:56.078Z,57.30
2018-02-07T15:04:23.149Z,56.90
2018-02-07T15:06:50.988Z,59.88
2018-02-07T15:09:22.234Z,57.40
2018-02-07T15:11:59.189Z,56.22
2018-02-07T15:14:36.144Z,54.75
2018-02-07T15:17:10.622Z,63.03
2018-02-07T15:19:50.187Z,54.75
2018-02-07T15:22:26.497Z,53.03
2018-02-07T15:24:59.106Z,60.25
2018-02-07T15:27:34.986Z,61.17
2018-02-07T15:30:15.462Z,56.58
2018-02-07T15:32:53.021Z,63.28
2018-02-07T15:35:28.099Z,65.87
2018-02-07T15:38:04.348Z,65.28
2018-02-07T15:40:33.271Z,59.33
2018-02-07T15:43:01.878Z,70.05
2018-02-07T15:45:28.765Z,66.05
2018-02-07T15:48:00.157Z,64.72
2018-02-07T15:50:27.150Z,64.85
2018-02-07T15:52:57.163Z,64.15
2018-02-07T15:55:25.679Z,62.53
2018-02-07T15:57:57.740Z,64.87
2018-02-07T16:00:25.301Z,58.45
2018-02-07T16:02:52.263Z,62.28
2018-02-07T16:05:19.259Z,60.35
2018-02-07T16:07:46.211Z,63.13
2018-02-07T16:10:13.110Z,65.68
2018-02-07T16:12:40.058Z,63.15
2018-02-07T16:15:07.004Z,64.00
2018-02-07T16:17:33.994Z,68.68
2018-02-07T16:20:00.895Z,68.82
2018-02-07T16:22:27.786Z,62.92
2018-02-07T16:24:54.819Z,71.30
2018-02-07T16:27:21.760Z,63.42
2018-02-07T16:29:48.735Z,60.67
2018-02-07T16:32:15.599Z,67.93
2018-02-07T16:34:43.675Z,62.80
2018-02-07T16:37:14.941Z,67.40
2018-02-07T16:39:49.083Z,62.20
2018-02-07T16:42:16.433Z,70.78
2018-02-07T16:44:52.939Z,71.72
2018-02-07T16:47:21.727Z,64.72
2018-02-07T16:49:51.708Z,62.45
2018-02-07T16:52:28.802Z,69.15
2018-02-07T16:55:11.026Z,69.43
2018-02-07T16:57:50.057Z,63.67
2018-02-07T17:00:27.758Z,71.93
2018-02-07T17:03:05.616Z,70.60
2018-02-07T17:05:48.201Z,67.10
2018-02-07T17:08:16.035Z,64.80
2018-02-07T17:10:42.987Z,63.00
2018-02-07T17:13:13.314Z,66.32
2018-02-07T17:15:40.776Z,65.25
2018-02-07T17:18:07.772Z,61.03
2018-02-07T17:20:35.803Z,66.20
2018-02-07T17:23:03.755Z,66.40
2018-02-07T17:25:37.392Z,68.47
2018-02-07T17:28:12.028Z,67.87
2018-02-07T17:30:44.292Z,60.42
2018-02-07T17:33:20.376Z,65.28
2018-02-07T17:35:54.930Z,59.85
2018-02-07T17:38:33.215Z,69.82
2018-02-07T17:41:01.353Z,68.82
2018-02-07T17:43:29.130Z,68.25
2018-02-07T17:45:56.822Z,69.82
2018-02-07T17:48:23.807Z,74.95
2018-02-07T17:51:03.075Z,56.42
2018-02-07T17:53:32.999Z,66.90
2018-02-07T17:56:04.136Z,66.18
2018-02-07T17:58:31.098Z,61.42
2018-02-07T18:00:58.090Z,62.28
2018-02-07T18:03:24.969Z,60.95
2018-02-07T18:05:52.652Z,66.45
2018-02-07T18:08:19.595Z,62.28
2018-02-07T18:10:46.468Z,63.70
2018-02-07T18:13:13.475Z,60.70
2018-02-07T18:15:40.351Z,61.37
2018-02-07T18:18:07.391Z,63.55
2018-02-07T18:20:34.327Z,57.88
2018-02-07T18:23:01.213Z,64.85
2018-02-07T18:25:28.168Z,60.92
2018-02-07T18:27:55.041Z,62.03
2018-02-07T18:30:22.781Z,63.28
2018-02-07T18:32:52.116Z,65.55
2018-02-07T18:35:19.642Z,68.90
2018-02-07T18:37:46.627Z,66.57
2018-02-07T18:40:13.603Z,70.43
2018-02-07T18:42:40.578Z,64.78
2018-02-07T18:45:07.539Z,69.18
2018-02-07T18:47:34.515Z,68.30
2018-02-07T18:50:01.572Z,64.30
2018-02-07T18:52:28.520Z,68.12
2018-02-07T18:54:55.406Z,68.28
2018-02-07T18:57:22.355Z,65.50
2018-02-07T18:59:49.369Z,69.20
2018-02-07T19:02:16.402Z,63.53
2018-02-07T19:04:43.306Z,71.07
2018-02-07T19:07:10.259Z,64.95
2018-02-07T19:09:51.979Z,65.28
2018-02-07T19:12:29.984Z,62.15
2018-02-07T19:14:59.249Z,70.57
2018-02-07T19:17:26.200Z,124.38
2018-02-07T19:19:53.556Z,71.00
2018-02-07T19:22:24.738Z,68.07
2018-02-07T19:24:54.150Z,67.62
2018-02-07T19:27:32.973Z,69.68
2018-02-07T19:30:07.029Z,68.80
2018-02-07T19:32:34.105Z,59.50
2018-02-07T19:35:06.297Z,62.13
2018-02-07T19:37:33.378Z,67.35
2018-02-07T19:40:00.469Z,66.47
2018-02-07T19:42:38.155Z,69.78
2018-02-07T19:45:06.650Z,67.12
2018-02-07T19:47:33.586Z,63.35
2018-02-07T19:50:03.065Z,63.67
2018-02-07T19:52:30.468Z,64.90
2018-02-07T19:55:05.120Z,68.25
2018-02-07T19:57:32.224Z,78.18
2018-02-07T19:59:59.235Z,66.32
2018-02-07T20:02:27.626Z,67.00
2018-02-07T20:04:55.773Z,65.70
2018-02-07T20:07:26.824Z,69.97
2018-02-07T20:09:54.408Z,65.68
2018-02-07T20:12:35.751Z,64.03
2018-02-07T20:15:03.016Z,75.93
2018-02-07T20:17:29.992Z,66.37
2018-02-07T20:19:56.908Z,70.18
2018-02-07T20:22:24.966Z,62.40
2018-02-07T20:24:51.879Z,68.25
2018-02-07T20:27:19.894Z,60.50
2018-02-07T20:29:46.794Z,59.17
2018-02-07T20:32:13.676Z,65.30
2018-02-07T20:34:41.155Z,69.10
2018-02-07T20:37:08.043Z,78.37
2018-02-07T20:39:35.033Z,66.22
2018-02-07T20:42:01.907Z,66.55
2018-02-07T20:44:35.020Z,65.50
2018-02-07T20:47:02.194Z,59.10
2018-02-07T20:49:30.294Z,70.05
2018-02-07T20:51:57.359Z,67.53
2018-02-07T20:54:32.125Z,60.20
2018-02-07T20:57:03.112Z,60.42
2018-02-07T20:59:42.705Z,59.28
2018-02-07T21:02:10.460Z,58.45
2018-02-07T21:04:37.992Z,61.75
2018-02-07T21:07:17.212Z,57.72
2018-02-07T21:09:44.552Z,59.00
2018-02-07T21:12:24.673Z,67.30
2018-02-07T21:15:05.122Z,65.57
2018-02-07T21:17:46.834Z,59.28
2018-02-07T21:20:25.780Z,62.88
2018-02-07T21:23:01.349Z,66.20
2018-02-07T21:25:28.751Z,60.78
2018-02-07T21:27:58.650Z,66.10
2018-02-07T21:30:38.034Z,59.78
2018-02-07T21:33:18.104Z,67.00
2018-02-07T21:35:57.229Z,66.00
2018-02-07T21:38:37.636Z,60.10
2018-02-07T21:41:20.940Z,71.60
2018-02-07T21:46:35.693Z,56.88
2018-02-07T21:49:15.011Z,61.05
2018-02-07T21:51:46.910Z,61.30
2018-02-07T21:54:26.949Z,61.60
2018-02-07T21:56:57.294Z,64.40
2018-02-07T21:59:24.310Z,65.93
2018-02-07T22:01:51.353Z,64.22
2018-02-07T22:04:30.143Z,62.67
2018-02-07T22:07:10.345Z,72.87
2018-02-07T22:09:46.576Z,69.32
2018-02-07T22:12:19.359Z,65.85
2018-02-07T22:14:46.418Z,91.00
2018-02-07T22:17:13.422Z,78.93
2018-02-07T22:19:44.553Z,78.62
2018-02-07T22:22:12.252Z,77.45
2018-02-07T22:24:39.147Z,67.05
2018-02-07T22:27:06.171Z,64.95
2018-02-07T22:29:33.066Z,68.00
2018-02-07T22:32:00.016Z,61.37
2018-02-07T22:34:26.907Z,66.12
2018-02-07T22:36:53.842Z,62.42
2018-02-07T22:39:20.734Z,62.62
2018-02-07T22:41:48.421Z,62.90
2018-02-07T22:44:15.288Z,65.18
2018-02-07T22:46:42.222Z,60.75
2018-02-07T22:49:09.155Z,62.50
2018-02-07T22:51:36.039Z,66.07
2018-02-07T22:54:03.006Z,61.42
2018-02-07T22:56:29.886Z,60.55
2018-02-07T22:58:57.606Z,58.15
2018-02-07T23:01:24.567Z,57.20
2018-02-07T23:03:51.441Z,62.45
2018-02-07T23:06:18.429Z,57.90
2018-02-07T23:08:45.372Z,60.38
2018-02-07T23:11:12.366Z,63.15
2018-02-07T23:13:39.237Z,62.15
2018-02-07T23:16:06.104Z,59.30
2018-02-07T23:18:33.054Z,61.80
2018-02-07T23:20:59.927Z,60.67
2018-02-07T23:23:26.811Z,60.92
2018-02-07T23:25:53.761Z,65.62
2018-02-07T23:28:20.707Z,61.90
2018-02-07T23:30:47.593Z,62.17
2018-02-07T23:33:14.463Z,56.35
2018-02-07T23:35:41.451Z,66.43
2018-02-07T23:38:08.411Z,63.78
2018-02-07T23:40:35.420Z,65.40
2018-02-07T23:43:03.099Z,61.53
2018-02-07T23:45:30.771Z,59.28
2018-02-07T23:47:57.729Z,62.10
2018-02-07T23:50:24.614Z,58.95
2018-02-07T23:52:51.517Z,64.35
2018-02-07T23:55:18.466Z,61.17
2018-02-07T23:57:45.357Z,59.25
